createdAt,value
2023-10-21T00:01:15.858Z,12.53
2023-10-21T00:04:47.812Z,13.60
2023-10-21T00:08:20.371Z,16.83
2023-10-21T00:11:52.579Z,16.30
2023-10-21T00:15:24.676Z,16.77
2023-10-21T00:18:56.555Z,16.38
2023-10-21T00:22:28.814Z,13.70
2023-10-21T00:26:03.336Z,17.33
2023-10-21T00:29:36.299Z,15.88
2023-10-21T00:33:08.252Z,19.05
2023-10-21T00:36:41.395Z,15.23
2023-10-21T00:40:13.362Z,15.10
2023-10-21T00:43:45.663Z,14.35
2023-10-21T00:47:17.557Z,16.50
2023-10-21T00:50:50.701Z,16.70
2023-10-21T00:54:23.946Z,15.93
2023-10-21T00:57:56.850Z,14.02
2023-10-21T01:01:28.795Z,16.37
2023-10-21T01:05:00.872Z,17.20
2023-10-21T01:08:43.093Z,15.93
2023-10-21T01:12:16.408Z,15.07
2023-10-21T01:15:48.576Z,17.63
2023-10-21T01:19:20.651Z,12.85
2023-10-21T01:22:52.421Z,16.37
2023-10-21T01:26:24.803Z,15.43
2023-10-21T01:29:56.590Z,15.02
2023-10-21T01:33:29.212Z,16.65
2023-10-21T01:37:01.042Z,15.90
2023-10-21T01:40:33.090Z,14.02
2023-10-21T01:44:04.997Z,18.58
2023-10-21T01:47:37.476Z,14.97
2023-10-21T01:51:09.973Z,17.55
2023-10-21T01:54:45.615Z,15.25
2023-10-21T01:58:17.405Z,17.63
2023-10-21T02:01:49.621Z,17.77
2023-10-21T02:05:22.588Z,17.85
2023-10-21T02:08:55.134Z,16.67
2023-10-21T02:12:29.439Z,16.20
2023-10-21T02:16:02.717Z,17.42
2023-10-21T02:19:34.729Z,16.27
2023-10-21T02:23:07.323Z,13.53
2023-10-21T02:26:41.801Z,14.40
2023-10-21T02:30:17.660Z,11.27
2023-10-21T02:33:49.840Z,20.30
2023-10-21T02:37:22.130Z,14.32
2023-10-21T02:40:54.012Z,12.68
2023-10-21T02:44:27.945Z,10.55
2023-10-21T02:48:01.482Z,13.43
2023-10-21T02:51:34.104Z,14.93
2023-10-21T02:55:06.891Z,14.95
2023-10-21T02:58:39.027Z,14.67
2023-10-21T03:02:10.897Z,14.30
2023-10-21T03:05:43.787Z,15.10
2023-10-21T03:09:17.315Z,12.83
2023-10-21T03:12:49.648Z,16.60
2023-10-21T03:16:21.737Z,16.98
2023-10-21T03:19:55.633Z,17.85
2023-10-21T03:23:29.091Z,20.13
2023-10-21T03:27:01.284Z,20.92
2023-10-21T03:30:33.106Z,20.38
2023-10-21T03:34:06.230Z,20.10
2023-10-21T03:37:38.052Z,16.65
2023-10-21T03:41:12.612Z,15.85
2023-10-21T03:44:44.628Z,23.10
2023-10-21T03:48:16.866Z,17.60
2023-10-21T03:51:48.714Z,20.92
2023-10-21T03:55:21.271Z,20.15
2023-10-21T03:58:53.465Z,18.67
2023-10-21T04:02:25.560Z,15.38
2023-10-21T04:05:58.021Z,14.85
2023-10-21T04:09:30.516Z,14.57
2023-10-21T04:13:02.505Z,14.63
2023-10-21T04:16:34.627Z,18.38
2023-10-21T04:20:07.231Z,13.77
2023-10-21T04:23:39.464Z,13.97
2023-10-21T04:27:11.189Z,16.02
2023-10-21T04:30:47.357Z,16.00
2023-10-21T04:34:22.640Z,20.50
2023-10-21T04:37:54.815Z,17.75
2023-10-21T04:41:26.638Z,15.38
2023-10-21T04:44:58.818Z,14.27
2023-10-21T04:48:31.122Z,16.17
2023-10-21T04:52:04.357Z,15.85
2023-10-21T04:55:36.232Z,13.68
2023-10-21T04:59:08.357Z,17.07
2023-10-21T05:02:40.278Z,12.88
2023-10-21T05:06:12.510Z,17.10
2023-10-21T05:09:44.396Z,15.00
2023-10-21T05:13:17.698Z,13.32
2023-10-21T05:16:50.432Z,19.85
2023-10-21T05:20:22.652Z,13.70
2023-10-21T05:23:54.845Z,15.82
2023-10-21T05:27:26.969Z,21.33
2023-10-21T05:30:59.389Z,18.08
2023-10-21T05:34:32.003Z,18.30
2023-10-21T05:38:04.190Z,16.85
2023-10-21T05:41:36.282Z,16.23
2023-10-21T05:45:09.681Z,15.40
2023-10-21T05:48:42.002Z,14.45
2023-10-21T05:52:16.262Z,15.38
2023-10-21T05:55:48.634Z,13.75
2023-10-21T05:59:20.566Z,12.17
2023-10-21T06:02:52.770Z,13.57
2023-10-21T06:06:24.872Z,18.35
2023-10-21T06:09:57.145Z,14.10
2023-10-21T06:13:28.971Z,16.13
2023-10-21T06:17:01.240Z,14.35
2023-10-21T06:20:33.209Z,16.07
2023-10-21T06:24:06.861Z,15.90
2023-10-21T06:27:38.645Z,14.02
2023-10-21T06:31:10.765Z,15.15
2023-10-21T06:34:43.048Z,16.47
2023-10-21T06:38:16.072Z,13.95
2023-10-21T06:41:48.043Z,19.08
2023-10-21T06:45:20.309Z,18.83
2023-10-21T06:48:52.379Z,18.95
2023-10-21T06:52:24.440Z,16.58
2023-10-21T06:55:56.363Z,23.17
2023-10-21T06:59:28.625Z,15.98
2023-10-21T07:03:00.578Z,16.05
2023-10-21T07:06:32.939Z,16.02
2023-10-21T07:10:05.354Z,20.80
2023-10-21T07:13:47.847Z,19.55
2023-10-21T07:17:20.290Z,18.40
2023-10-21T07:20:58.777Z,18.47
2023-10-21T07:24:30.835Z,21.75
2023-10-21T07:28:03.354Z,20.58
2023-10-21T07:31:35.478Z,17.27
2023-10-21T07:35:10.333Z,19.38
2023-10-21T07:38:42.224Z,17.67
2023-10-21T07:42:15.726Z,19.45
2023-10-21T07:45:47.622Z,18.93
2023-10-21T07:49:19.650Z,21.95
2023-10-21T07:52:51.563Z,19.85
2023-10-21T07:56:24.033Z,18.77
2023-10-21T07:59:56.050Z,21.23
2023-10-21T08:03:29.145Z,22.05
2023-10-21T08:07:01.167Z,20.87
2023-10-21T08:10:33.840Z,21.70
2023-10-21T08:14:05.875Z,22.13
2023-10-21T08:17:38.171Z,26.40
2023-10-21T08:21:10.214Z,28.50
2023-10-21T08:24:42.560Z,22.30
2023-10-21T08:28:14.625Z,23.75
2023-10-21T08:31:46.736Z,24.33
2023-10-21T08:35:18.498Z,26.02
2023-10-21T08:38:51.755Z,23.25
2023-10-21T08:42:32.746Z,22.03
2023-10-21T08:46:22.644Z,21.02
2023-10-21T08:49:55.715Z,22.65
2023-10-21T08:53:28.446Z,23.77
2023-10-21T08:57:00.504Z,24.40
2023-10-21T09:00:32.556Z,22.20
2023-10-21T09:04:05.212Z,33.58
2023-10-21T09:07:49.216Z,31.80
2023-10-21T09:11:25.890Z,30.70
2023-10-21T09:14:58.478Z,31.48
2023-10-21T09:18:30.447Z,31.73
2023-10-21T09:22:02.968Z,33.17
2023-10-21T09:25:36.373Z,39.67
2023-10-21T09:29:09.333Z,33.65
2023-10-21T09:32:43.000Z,38.00
2023-10-21T09:36:22.738Z,34.20
2023-10-21T09:39:55.271Z,37.17
2023-10-21T09:43:28.006Z,37.30
2023-10-21T09:47:01.513Z,40.33
2023-10-21T09:50:36.848Z,32.88
2023-10-21T09:54:13.582Z,35.85
2023-10-21T09:57:47.103Z,36.90
2023-10-21T10:01:24.818Z,31.65
2023-10-21T10:04:58.681Z,29.58
2023-10-21T10:08:32.439Z,32.53
2023-10-21T10:12:11.109Z,31.40
2023-10-21T10:15:43.901Z,26.95
2023-10-21T10:19:36.888Z,25.90
2023-10-21T10:23:09.965Z,31.13
2023-10-21T10:26:43.902Z,30.17
2023-10-21T10:30:21.816Z,28.38
2023-10-21T10:33:54.573Z,26.20
2023-10-21T10:37:36.942Z,25.50
2023-10-21T10:41:12.534Z,28.58
2023-10-21T10:44:45.368Z,29.70
2023-10-21T10:48:18.474Z,30.92
2023-10-21T10:51:51.224Z,31.20
2023-10-21T10:55:23.803Z,31.53
2023-10-21T10:58:56.174Z,30.92
2023-10-21T11:02:30.367Z,31.52
2023-10-21T11:06:04.338Z,31.33
2023-10-21T11:09:36.581Z,30.97
2023-10-21T11:13:09.141Z,31.65
2023-10-21T11:16:41.247Z,32.17
2023-10-21T11:20:14.639Z,31.27
2023-10-21T11:23:46.509Z,28.98
2023-10-21T11:27:18.845Z,31.50
2023-10-21T11:30:51.367Z,29.07
2023-10-21T11:34:23.951Z,30.95
2023-10-21T11:37:56.821Z,36.08
2023-10-21T11:41:28.935Z,32.20
2023-10-21T11:45:04.641Z,29.07
2023-10-21T11:48:39.403Z,30.27
2023-10-21T11:52:12.704Z,27.55
2023-10-21T11:55:50.694Z,26.10
2023-10-21T11:59:41.634Z,25.27
2023-10-21T12:03:16.480Z,28.15
2023-10-21T12:07:23.639Z,28.40
2023-10-21T12:11:14.342Z,27.98
2023-10-21T12:15:04.862Z,23.17
2023-10-21T12:18:55.222Z,25.60
2023-10-21T12:22:45.967Z,22.53
2023-10-21T12:26:39.674Z,26.90
2023-10-21T12:30:30.572Z,26.95
2023-10-21T12:34:20.922Z,27.13
2023-10-21T12:38:12.793Z,25.63
2023-10-21T12:41:55.645Z,29.23
2023-10-21T12:45:36.111Z,27.70
2023-10-21T12:49:25.956Z,26.70
2023-10-21T12:52:58.948Z,26.77
2023-10-21T12:56:31.129Z,25.00
2023-10-21T13:00:04.634Z,24.67
2023-10-21T13:03:39.327Z,25.10
2023-10-21T13:07:11.374Z,26.00
2023-10-21T13:10:43.650Z,20.63
2023-10-21T13:14:17.886Z,23.27
2023-10-21T13:17:50.520Z,22.93
2023-10-21T13:21:22.439Z,25.52
2023-10-21T13:25:10.371Z,22.63
2023-10-21T13:28:46.671Z,23.17
2023-10-21T13:32:18.722Z,21.65
2023-10-21T13:35:50.483Z,23.67
2023-10-21T13:39:24.406Z,21.95
2023-10-21T13:42:56.687Z,26.10
2023-10-21T13:46:29.278Z,23.58
2023-10-21T13:50:01.054Z,22.65
2023-10-21T13:53:33.899Z,22.93
2023-10-21T13:57:07.006Z,21.93
2023-10-21T14:00:39.795Z,23.17
2023-10-21T14:04:13.710Z,21.25
2023-10-21T14:07:47.125Z,25.30
2023-10-21T14:11:18.998Z,24.00
2023-10-21T14:14:51.804Z,24.55
2023-10-21T14:18:24.314Z,22.23
2023-10-21T14:21:56.511Z,21.40
2023-10-21T14:25:28.589Z,22.97
2023-10-21T14:29:01.158Z,20.35
2023-10-21T14:32:33.936Z,21.10
2023-10-21T14:36:07.550Z,23.57
2023-10-21T14:39:39.921Z,23.83
2023-10-21T14:43:13.753Z,22.95
2023-10-21T14:46:48.532Z,21.05
2023-10-21T14:50:20.602Z,24.27
2023-10-21T14:53:52.388Z,21.92
2023-10-21T14:57:25.692Z,21.75
2023-10-21T15:00:57.703Z,19.43
2023-10-21T15:04:30.507Z,19.47
2023-10-21T15:08:02.576Z,19.65
2023-10-21T15:11:34.740Z,23.25
2023-10-21T15:15:08.295Z,25.60
2023-10-21T15:18:40.861Z,27.73
2023-10-21T15:22:12.617Z,27.30
2023-10-21T15:25:44.796Z,30.90
2023-10-21T15:29:16.775Z,28.00
2023-10-21T15:32:50.374Z,29.17
2023-10-21T15:36:22.221Z,30.98
2023-10-21T15:39:57.161Z,31.23
2023-10-21T15:43:28.919Z,32.57
2023-10-21T15:47:01.175Z,33.38
2023-10-21T15:50:33.119Z,42.50
2023-10-21T15:54:05.613Z,40.63
2023-10-21T15:57:38.824Z,37.17
2023-10-21T16:01:11.057Z,44.33
2023-10-21T16:04:46.032Z,38.85
2023-10-21T16:08:22.578Z,38.93
2023-10-21T16:11:55.341Z,44.33
2023-10-21T16:15:29.214Z,45.20
2023-10-21T16:19:01.002Z,40.57
2023-10-21T16:22:37.188Z,46.93
2023-10-21T16:26:09.435Z,46.58
2023-10-21T16:29:42.152Z,45.85
2023-10-21T16:33:20.240Z,47.53
2023-10-21T16:37:08.914Z,50.78
2023-10-21T16:40:42.400Z,53.17
2023-10-21T16:44:14.171Z,47.90
2023-10-21T16:47:47.390Z,50.42
2023-10-21T16:51:19.303Z,54.60
2023-10-21T16:54:52.510Z,58.08
2023-10-21T16:58:24.319Z,51.27
2023-10-21T17:01:56.709Z,58.17
2023-10-21T17:05:28.659Z,59.95
2023-10-21T17:09:01.233Z,53.87
2023-10-21T17:12:33.834Z,55.72
2023-10-21T17:16:06.718Z,49.47
2023-10-21T17:19:38.872Z,54.45
2023-10-21T17:23:11.717Z,58.70
2023-10-21T17:26:43.558Z,50.38
2023-10-21T17:30:17.893Z,57.05
2023-10-21T17:33:51.167Z,62.07
2023-10-21T17:37:24.573Z,72.03
2023-10-21T17:40:56.339Z,68.25
2023-10-21T17:44:32.532Z,65.80
2023-10-21T17:48:06.291Z,58.10
2023-10-21T17:51:58.687Z,54.67
2023-10-21T17:55:37.014Z,52.03
2023-10-21T17:59:12.258Z,59.13
2023-10-21T18:02:44.603Z,67.10
2023-10-21T18:06:16.824Z,66.00
2023-10-21T18:09:48.928Z,69.10
2023-10-21T18:13:21.040Z,65.90
2023-10-21T18:16:52.762Z,69.07
2023-10-21T18:20:26.912Z,63.92
2023-10-21T18:23:59.116Z,67.63
2023-10-21T18:27:31.175Z,68.55
2023-10-21T18:31:03.471Z,78.53
2023-10-21T18:34:36.116Z,69.53
2023-10-21T18:38:08.367Z,67.32
2023-10-21T18:41:40.433Z,72.07
2023-10-21T18:45:12.692Z,65.95
2023-10-21T18:48:45.166Z,79.90
2023-10-21T18:52:17.505Z,71.10
2023-10-21T18:55:50.065Z,78.85
2023-10-21T18:59:22.557Z,63.40
2023-10-21T19:02:54.700Z,68.32
2023-10-21T19:06:31.360Z,64.60
2023-10-21T19:10:07.789Z,61.20
2023-10-21T19:13:39.560Z,63.50
2023-10-21T19:17:11.521Z,69.43
2023-10-21T19:20:44.424Z,74.68
2023-10-21T19:24:17.865Z,70.20
2023-10-21T19:27:49.717Z,67.47
2023-10-21T19:31:22.063Z,66.43
2023-10-21T19:34:55.252Z,71.80
2023-10-21T19:38:35.222Z,76.63
2023-10-21T19:42:28.674Z,78.03
2023-10-21T19:50:17.199Z,76.75
2023-10-21T19:54:11.193Z,71.70
2023-10-21T19:57:58.424Z,74.60
2023-10-21T20:01:44.790Z,73.23
2023-10-21T20:05:35.354Z,73.72
2023-10-21T20:09:30.596Z,76.90
2023-10-21T20:14:15.097Z,77.53
2023-10-21T20:18:02.166Z,87.47
2023-10-21T20:21:55.631Z,74.78
2023-10-21T20:25:46.607Z,62.87
2023-10-21T20:34:41.609Z,51.65
2023-10-21T20:38:50.783Z,46.30
2023-10-21T20:42:43.054Z,36.63
2023-10-21T20:50:57.584Z,61.45
2023-10-21T20:59:33.871Z,72.43
2023-10-21T21:08:37.396Z,68.80
2023-10-21T21:12:25.288Z,75.32
2023-10-21T21:16:09.936Z,68.80
2023-10-21T21:20:24.920Z,92.65
2023-10-21T21:24:47.087Z,73.63
2023-10-21T21:28:34.383Z,70.28
2023-10-21T21:32:17.611Z,86.13
2023-10-21T21:36:22.243Z,74.67
2023-10-21T21:40:08.049Z,77.55
2023-10-21T21:44:29.295Z,86.20
2023-10-21T21:48:11.443Z,73.38
2023-10-21T21:51:43.869Z,77.60
2023-10-21T21:55:16.003Z,72.60
2023-10-21T21:58:49.247Z,75.15
2023-10-21T22:02:22.229Z,74.47
2023-10-21T22:05:55.730Z,70.32
2023-10-21T22:09:29.227Z,70.22
2023-10-21T22:13:01.675Z,69.23
2023-10-21T22:16:37.517Z,67.93
2023-10-21T22:20:23.364Z,62.20
2023-10-21T22:24:02.089Z,72.28
2023-10-21T22:27:34.257Z,72.77
2023-10-21T22:31:08.240Z,67.70
2023-10-21T22:34:41.358Z,75.45
2023-10-21T22:38:14.090Z,83.77
2023-10-21T22:41:46.880Z,69.78
2023-10-21T22:45:19.400Z,57.20
2023-10-21T22:48:51.938Z,60.80
2023-10-21T22:52:24.434Z,64.10
2023-10-21T22:55:56.938Z,62.50
2023-10-21T22:59:32.617Z,62.92
2023-10-21T23:03:11.156Z,62.97
2023-10-21T23:06:53.751Z,68.63
2023-10-21T23:10:29.680Z,63.35
2023-10-21T23:14:02.515Z,59.53
2023-10-21T23:17:34.412Z,66.45
2023-10-21T23:21:07.029Z,63.03
2023-10-21T23:24:40.675Z,59.17
2023-10-21T23:28:12.986Z,63.30
2023-10-21T23:31:44.892Z,64.97
2023-10-21T23:35:17.268Z,61.95
2023-10-21T23:38:49.308Z,67.10
2023-10-21T23:42:23.666Z,64.57
2023-10-21T23:45:55.597Z,66.70
2023-10-21T23:49:27.669Z,67.80
2023-10-21T23:52:59.934Z,65.95
2023-10-21T23:56:31.968Z,65.45
